Time;durP1;ratioP1;P1;durP2;ratioP2;P2;SDS_P1;SDS_P2;PMS_P1;PMS_P2;Temp;Humidity;BMP_temperature;BMP_pressure;BME280_temperature;BME280_humidity;BME280_pressure;Samples;Min_cycle;Max_cycle;Signal;HPM_P1;HPM_P2
2021/12/18 00:00:29;;;;;;;3.85;2.85;;;;;;;21.79;28.82;100807.38;5130230;27;20043;-56
2021/12/18 00:02:55;;;;;;;4.40;2.75;;;;;;;21.60;29.23;100807.91;5130006;27;20139;-57
2021/12/18 00:05:21;;;;;;;3.80;2.70;;;;;;;21.45;29.38;100811.38;5130064;27;20457;-57
2021/12/18 00:07:48;;;;;;;4.22;2.88;;;;;;;21.31;29.42;100808.09;5133496;27;20081;-57
2021/12/18 00:10:14;;;;;;;4.18;2.88;;;;;;;21.25;29.48;100803.88;5133262;27;20130;-56
2021/12/18 00:12:47;;;;;;;3.63;2.67;;;;;;;21.16;29.41;100802.00;5133037;27;20463;-57
2021/12/18 00:15:13;;;;;;;4.15;3.00;;;;;;;21.10;29.79;100802.56;5131909;28;20047;-56
2021/12/18 00:17:38;;;;;;;3.75;2.67;;;;;;;21.05;29.72;100802.78;5133285;27;20043;-56
2021/12/18 00:20:04;;;;;;;3.83;2.80;;;;;;;21.01;29.97;100799.88;5133343;27;20054;-57
2021/12/18 00:22:30;;;;;;;4.10;2.90;;;;;;;20.99;29.85;100793.81;5133327;27;20047;-57
2021/12/18 00:24:55;;;;;;;3.88;2.83;;;;;;;20.98;29.71;100794.97;5133079;27;20093;-56
2021/12/18 00:27:21;;;;;;;4.32;3.10;;;;;;;20.96;29.73;100786.19;5133208;28;20050;-56
2021/12/18 00:29:46;;;;;;;3.60;2.63;;;;;;;20.96;29.98;100793.72;5133005;27;20042;-56
2021/12/18 00:32:14;;;;;;;3.78;2.90;;;;;;;20.95;29.79;100786.53;5132956;27;20484;-56
2021/12/18 00:34:40;;;;;;;3.38;2.55;;;;;;;20.94;29.95;100784.91;5132777;27;20047;-56
2021/12/18 00:37:06;;;;;;;3.67;2.75;;;;;;;20.93;29.76;100786.03;5133081;27;20045;-57
2021/12/18 00:39:33;;;;;;;3.60;2.72;;;;;;;20.92;30.05;100778.84;5133229;27;20096;-57
2021/12/18 00:42:07;;;;;;;4.47;3.13;;;;;;;20.91;30.01;100780.00;5132670;27;20043;-57
2021/12/18 00:44:33;;;;;;;4.00;2.92;;;;;;;20.87;30.03;100771.56;5132944;27;20073;-57
2021/12/18 00:46:58;;;;;;;3.78;2.72;;;;;;;20.89;29.94;100775.59;5132562;27;20039;-57
2021/12/18 00:49:24;;;;;;;4.40;3.13;;;;;;;20.88;30.16;100773.16;5132704;27;20043;-57
2021/12/18 00:51:50;;;;;;;4.20;3.10;;;;;;;20.88;29.95;100771.19;5132662;27;20540;-56
2021/12/18 00:54:15;;;;;;;4.00;2.95;;;;;;;20.88;30.03;100767.59;5132347;27;20055;-57
2021/12/18 00:56:41;;;;;;;3.50;2.80;;;;;;;20.84;30.12;100756.34;5132654;27;20112;-57
2021/12/18 00:59:06;;;;;;;4.50;3.28;;;;;;;20.87;30.02;100764.00;5130673;27;20088;-57
2021/12/18 01:01:32;;;;;;;3.72;2.80;;;;;;;20.86;30.02;100759.63;5132518;28;20039;-56
2021/12/18 01:03:58;;;;;;;4.65;3.22;;;;;;;20.84;30.08;100750.78;5132206;27;20044;-64
2021/12/18 01:06:24;;;;;;;4.43;3.33;;;;;;;20.88;30.09;100762.84;5132588;27;20051;-64
2021/12/18 01:08:53;;;;;;;4.55;3.17;;;;;;;20.86;29.86;100762.41;5132502;27;20436;-64
2021/12/18 01:11:41;;;;;;;4.95;3.45;;;;;;;20.86;29.99;100756.84;5132189;27;20070;-64
2021/12/18 01:16:55;;;;;;;4.30;2.90;;;;;;;20.89;29.90;100761.69;5132453;27;20126;-63
2021/12/18 01:24:50;;;;;;;4.18;3.10;;;;;;;20.83;29.98;100757.50;5132319;28;20127;-64
2021/12/18 01:27:15;;;;;;;4.50;3.35;;;;;;;20.82;30.24;100753.09;5132118;27;20130;-63
2021/12/18 01:29:41;;;;;;;3.92;3.13;;;;;;;20.87;30.02;100766.00;5132240;28;20184;-63
2021/12/18 01:32:07;;;;;;;4.78;3.50;;;;;;;20.85;30.08;100763.53;5132002;27;20047;-63
2021/12/18 01:34:33;;;;;;;4.47;3.53;;;;;;;20.88;30.03;100767.59;5131779;27;20050;-64
2021/12/18 01:36:58;;;;;;;4.57;3.30;;;;;;;20.86;29.93;100759.63;5131799;28;20047;-63
2021/12/18 01:39:24;;;;;;;4.40;3.50;;;;;;;20.88;29.99;100759.25;5132219;27;20050;-63
2021/12/18 01:53:10;;;;;;;4.32;3.17;;;;;;;20.85;30.00;100759.94;5131529;28;20096;-63
2021/12/18 01:55:37;;;;;;;4.32;3.30;;;;;;;20.85;30.18;100757.16;5131421;27;20081;-56
2021/12/18 01:58:04;;;;;;;4.53;3.55;;;;;;;20.83;30.19;100751.94;5131681;28;20039;-56
2021/12/18 02:00:35;;;;;;;4.60;3.28;;;;;;;20.88;30.11;100754.50;5131607;27;20049;-64
2021/12/18 02:03:00;;;;;;;4.15;3.03;;;;;;;20.85;30.04;100752.41;5131687;27;20043;-64
2021/12/18 02:05:26;;;;;;;3.90;2.90;;;;;;;20.89;29.98;100749.75;5131391;27;20418;-64
2021/12/18 02:07:52;;;;;;;4.57;3.38;;;;;;;20.88;29.91;100751.72;5131623;27;20043;-64
2021/12/18 02:10:21;;;;;;;4.30;3.15;;;;;;;20.86;29.91;100737.38;5131605;27;20058;-64
2021/12/18 02:13:22;;;;;;;4.07;3.17;;;;;;;20.87;29.91;100747.34;5131379;27;20047;-64
2021/12/18 02:21:10;;;;;;;4.20;3.25;;;;;;;20.88;29.95;100742.56;5131386;28;20057;-64
2021/12/18 02:23:39;;;;;;;4.55;3.25;;;;;;;20.85;30.16;100732.94;5131377;27;20078;-65
2021/12/18 02:26:06;;;;;;;5.00;3.40;;;;;;;20.85;30.16;100732.94;5131024;27;20088;-65
2021/12/18 02:28:31;;;;;;;3.83;3.03;;;;;;;20.84;30.10;100731.31;5129278;27;20047;-65
2021/12/18 02:30:57;;;;;;;3.80;2.95;;;;;;;20.86;29.95;100728.22;5131237;27;20069;-64
2021/12/18 02:33:25;;;;;;;4.38;3.22;;;;;;;20.86;29.88;100719.88;5131198;27;20059;-57
2021/12/18 02:35:53;;;;;;;4.47;3.20;;;;;;;20.85;29.92;100729.34;5131052;27;20039;-56
2021/12/18 02:38:30;;;;;;;4.18;3.15;;;;;;;20.85;30.10;100723.78;5131062;27;20495;-56
2021/12/18 02:41:07;;;;;;;4.45;3.10;;;;;;;20.85;29.99;100721.81;5130940;27;20067;-63
2021/12/18 02:43:36;;;;;;;4.22;3.28;;;;;;;20.85;29.94;100716.25;5130830;27;20047;-63
2021/12/18 02:46:07;;;;;;;4.10;3.13;;;;;;;20.82;30.02;100711.38;5130804;27;20061;-63
2021/12/18 02:48:35;;;;;;;4.10;3.15;;;;;;;20.81;29.96;100718.09;5130730;27;20043;-64
2021/12/18 02:51:02;;;;;;;4.35;3.20;;;;;;;20.81;29.87;100709.75;5130934;27;20047;-64
2021/12/18 02:53:28;;;;;;;4.43;3.30;;;;;;;20.81;30.02;100711.72;5130858;27;20051;-64
2021/12/18 02:55:56;;;;;;;4.05;3.05;;;;;;;20.81;30.05;100712.53;5130901;28;20422;-64
2021/12/18 02:58:21;;;;;;;4.07;3.15;;;;;;;20.81;30.13;100711.72;5130834;27;20035;-64
2021/12/18 03:00:47;;;;;;;3.90;3.00;;;;;;;20.80;30.00;100705.38;5130672;28;20085;-64
2021/12/18 03:03:14;;;;;;;4.43;3.30;;;;;;;20.82;29.97;100705.81;5130562;27;20047;-63
2021/12/18 03:05:48;;;;;;;4.43;3.05;;;;;;;20.82;30.15;100707.78;5130364;27;20047;-63
2021/12/18 03:08:21;;;;;;;5.03;3.60;;;;;;;20.82;30.08;100691.91;5130874;28;20043;-62
2021/12/18 03:20:11;;;;;;;4.22;3.15;;;;;;;20.82;29.93;100691.09;5067087;28;20043;-64
2021/12/18 03:24:54;;;;;;;4.07;3.00;;;;;;;20.80;30.12;100685.91;5066824;28;20315;-64
2021/12/18 03:27:21;;;;;;;4.32;3.15;;;;;;;20.81;30.17;100681.97;5066806;28;20053;-64
2021/12/18 03:29:46;;;;;;;4.47;3.20;;;;;;;20.79;30.08;100670.38;5067029;28;20037;-64
2021/12/18 03:32:12;;;;;;;4.68;3.47;;;;;;;20.80;30.21;100673.97;5066870;28;20047;-63
2021/12/18 03:34:38;;;;;;;4.40;3.17;;;;;;;20.82;30.03;100674.44;5066518;28;20098;-63
2021/12/18 03:37:04;;;;;;;4.00;3.10;;;;;;;20.81;30.14;100672.81;5066766;28;20552;-63
2021/12/18 03:39:30;;;;;;;4.35;3.08;;;;;;;20.81;29.90;100673.63;5066765;28;20063;-64
2021/12/18 03:41:56;;;;;;;3.88;2.67;;;;;;;20.81;30.05;100662.50;5069494;28;20048;-64
2021/12/18 03:44:22;;;;;;;4.32;3.05;;;;;;;20.80;29.91;100669.22;5070150;28;20409;-64
2021/12/18 03:46:48;;;;;;;4.35;3.38;;;;;;;20.80;29.95;100665.63;5069853;28;20055;-64
2021/12/18 03:49:14;;;;;;;4.20;3.10;;;;;;;20.81;29.87;100665.28;5070107;28;20397;-64
2021/12/18 03:51:40;;;;;;;4.43;3.33;;;;;;;20.81;29.88;100662.50;5087752;28;20538;-64
2021/12/18 03:54:05;;;;;;;4.20;3.20;;;;;;;20.81;29.94;100662.50;5133406;27;20054;-64
2021/12/18 03:56:31;;;;;;;4.07;3.10;;;;;;;20.80;30.00;100660.88;5133462;28;20047;-64
2021/12/18 03:58:57;;;;;;;4.28;3.25;;;;;;;20.83;29.83;100668.50;5132575;27;20043;-64
2021/12/18 04:01:22;;;;;;;4.00;2.65;;;;;;;20.85;29.88;100659.81;5132754;27;20057;-64
2021/12/18 04:03:48;;;;;;;4.13;2.92;;;;;;;20.81;29.70;100659.72;5133496;27;20491;-63
2021/12/18 04:06:14;;;;;;;4.03;3.05;;;;;;;20.82;29.89;100653.00;5133434;27;20039;-64
2021/12/18 04:08:40;;;;;;;4.07;2.95;;;;;;;20.83;30.06;100659.38;5133458;27;20494;-64
2021/12/18 04:11:05;;;;;;;3.95;3.10;;;;;;;20.81;29.94;100648.59;5133255;27;20077;-64
2021/12/18 04:13:31;;;;;;;3.80;2.90;;;;;;;20.81;30.05;100648.59;5133361;27;20452;-64
2021/12/18 04:15:56;;;;;;;4.53;3.28;;;;;;;20.82;29.80;100649.41;5133692;27;20380;-64
2021/12/18 04:18:22;;;;;;;4.03;2.90;;;;;;;20.80;29.77;100640.59;5133525;27;20496;-64
2021/12/18 04:20:47;;;;;;;5.80;2.70;;;;;;;20.80;29.91;100638.63;5133355;27;20083;-64
2021/12/18 04:23:13;;;;;;;4.03;2.90;;;;;;;20.77;29.92;100636.53;5133291;27;20039;-64
2021/12/18 04:25:40;;;;;;;3.83;3.00;;;;;;;20.78;29.70;100635.34;5133117;27;20046;-64
2021/12/18 04:28:05;;;;;;;4.00;2.75;;;;;;;20.80;29.83;100644.19;5133257;27;20080;-64
2021/12/18 04:30:31;;;;;;;3.92;2.90;;;;;;;20.80;29.95;100643.38;5133049;27;20039;-64
2021/12/18 04:32:56;;;;;;;3.85;2.92;;;;;;;20.81;29.70;100653.34;5132942;27;20047;-56
2021/12/18 04:35:22;;;;;;;4.40;3.15;;;;;;;20.80;29.65;100646.97;5133062;28;20060;-56
2021/12/18 04:37:47;;;;;;;3.70;2.70;;;;;;;20.80;29.68;100651.72;5133204;27;20105;-56
2021/12/18 04:40:12;;;;;;;4.57;3.40;;;;;;;20.80;29.82;100654.50;5133079;27;20091;-57
2021/12/18 04:42:38;;;;;;;3.83;2.88;;;;;;;20.79;29.89;100653.69;5132891;27;20048;-56
2021/12/18 04:45:04;;;;;;;3.85;2.83;;;;;;;20.80;29.70;100646.97;5132742;27;20039;-57
2021/12/18 04:47:30;;;;;;;4.10;2.85;;;;;;;20.80;29.67;100655.31;5132950;27;20058;-64
2021/12/18 04:49:55;;;;;;;3.88;2.70;;;;;;;20.81;29.69;100654.16;5133153;27;20445;-64
2021/12/18 04:52:22;;;;;;;3.63;2.80;;;;;;;20.82;29.94;100653.00;5132535;27;20452;-64
2021/12/18 04:54:48;;;;;;;4.07;2.88;;;;;;;20.78;29.86;100649.25;5132922;27;20044;-64
2021/12/18 04:57:13;;;;;;;4.13;2.92;;;;;;;20.83;29.87;100653.78;5132708;27;20099;-64
2021/12/18 04:59:43;;;;;;;4.20;3.17;;;;;;;20.84;29.68;100660.97;5132695;27;20047;-64
2021/12/18 05:02:15;;;;;;;3.83;2.63;;;;;;;20.82;29.77;100664.13;5132737;27;20057;-64
2021/12/18 05:04:41;;;;;;;3.75;2.55;;;;;;;20.82;29.78;100661.31;5132830;27;20051;-63
2021/12/18 05:07:06;;;;;;;3.45;2.70;;;;;;;20.82;29.94;100668.88;5132587;27;20399;-63
2021/12/18 05:09:32;;;;;;;4.13;2.75;;;;;;;20.81;29.68;100668.06;5132238;27;20080;-63
2021/12/18 05:11:57;;;;;;;3.90;2.75;;;;;;;20.79;29.86;100667.59;5132583;27;20035;-64
2021/12/18 05:14:23;;;;;;;3.60;2.67;;;;;;;20.79;29.72;100662.03;5132693;27;20490;-64
2021/12/18 05:16:48;;;;;;;3.88;2.97;;;;;;;20.80;29.57;100660.06;5132492;27;20478;-63
2021/12/18 05:19:14;;;;;;;3.75;2.83;;;;;;;20.79;29.62;100664.00;5132181;27;20044;-63
2021/12/18 05:21:40;;;;;;;4.18;3.00;;;;;;;20.79;29.50;100658.44;5132314;27;20047;-63
2021/12/18 05:24:06;;;;;;;4.05;2.92;;;;;;;20.80;29.54;100660.88;5132046;27;20043;-64
2021/12/18 05:26:32;;;;;;;3.75;2.63;;;;;;;20.80;29.53;100669.22;5132033;27;20043;-56
2021/12/18 05:28:57;;;;;;;3.47;2.67;;;;;;;20.77;29.67;100667.09;5132280;27;20051;-56
2021/12/18 05:31:23;;;;;;;3.88;2.78;;;;;;;20.77;29.52;100678.22;5132158;27;20062;-56
2021/12/18 05:33:52;;;;;;;3.92;2.92;;;;;;;20.76;29.64;100679.38;5129884;27;20145;-56
2021/12/18 05:38:55;;;;;;;4.18;3.00;;;;;;;20.75;29.50;100675.00;5132313;27;20102;-63
2021/12/18 05:41:20;;;;;;;3.50;2.65;;;;;;;20.75;29.58;100676.97;5131964;27;20047;-64
2021/12/18 05:43:46;;;;;;;3.60;2.72;;;;;;;20.75;29.67;100671.41;5131993;28;20063;-64
2021/12/18 05:46:11;;;;;;;3.85;2.67;;;;;;;20.73;29.45;100666.19;5131835;27;20043;-64
2021/12/18 05:48:37;;;;;;;4.07;2.90;;;;;;;20.76;29.75;100668.25;5132073;27;20039;-64
2021/12/18 05:51:05;;;;;;;3.88;2.80;;;;;;;20.76;29.73;100670.22;5131968;27;20088;-64
2021/12/18 05:53:31;;;;;;;3.40;2.50;;;;;;;20.75;29.65;100666.66;5131958;27;20077;-64
2021/12/18 05:55:56;;;;;;;4.10;2.60;;;;;;;20.76;29.74;100659.13;5132010;27;20469;-64
2021/12/18 05:58:21;;;;;;;3.58;2.67;;;;;;;20.76;29.50;100664.69;5131802;27;20057;-64
2021/12/18 06:00:47;;;;;;;3.92;2.53;;;;;;;20.75;29.66;100655.53;5131746;27;20075;-57
2021/12/18 06:03:12;;;;;;;3.83;2.83;;;;;;;20.74;29.74;100659.47;5130623;27;20048;-57
2021/12/18 06:05:38;;;;;;;3.40;2.50;;;;;;;20.74;29.53;100667.81;5131573;27;20434;-57
2021/12/18 06:08:09;;;;;;;3.95;2.90;;;;;;;20.73;29.54;100657.03;5131738;28;20043;-57
2021/12/18 06:10:36;;;;;;;3.97;2.78;;;;;;;20.73;29.50;100654.25;5131453;27;20050;-64
2021/12/18 06:13:02;;;;;;;3.58;2.60;;;;;;;20.70;29.67;100661.28;5131401;27;20557;-64
2021/12/18 06:15:28;;;;;;;3.90;2.47;;;;;;;20.71;29.58;100659.31;5131437;27;20039;-64
2021/12/18 06:17:55;;;;;;;3.88;2.50;;;;;;;21.08;29.24;100655.47;5131616;27;20073;-64
2021/12/18 06:20:21;;;;;;;4.25;2.80;;;;;;;21.88;27.88;100654.84;5131446;27;20043;-64
2021/12/18 06:22:47;;;;;;;3.65;2.60;;;;;;;21.95;27.78;100652.28;5131294;27;20043;-64
2021/12/18 06:25:12;;;;;;;3.55;2.38;;;;;;;21.81;28.27;100649.06;5131299;27;20043;-65
2021/12/18 06:27:38;;;;;;;3.92;2.65;;;;;;;21.62;28.22;100646.06;5131183;27;20450;-65
2021/12/18 06:30:04;;;;;;;3.50;2.70;;;;;;;21.44;28.48;100651.09;5131242;27;20046;-62
2021/12/18 06:32:30;;;;;;;3.42;2.65;;;;;;;21.31;28.55;100643.91;5130971;27;20495;-62
2021/12/18 06:34:55;;;;;;;3.38;2.47;;;;;;;21.21;28.75;100647.91;5130940;27;20051;-62
2021/12/18 06:37:21;;;;;;;3.70;2.50;;;;;;;21.41;28.78;100644.22;5131035;27;20043;-63
2021/12/18 06:39:46;;;;;;;4.07;2.67;;;;;;;22.17;27.61;100650.16;5131107;27;20046;-56
2021/12/18 06:42:11;;;;;;;3.70;2.70;;;;;;;22.30;27.49;100651.72;5130908;27;20043;-56
2021/12/18 06:44:37;;;;;;;3.75;2.63;;;;;;;22.13;27.48;100652.00;5131080;27;20039;-56
2021/12/18 06:47:03;;;;;;;3.50;2.38;;;;;;;21.89;27.76;100650.09;5130752;27;20039;-56
2021/12/18 06:49:28;;;;;;;3.40;2.40;;;;;;;21.68;28.19;100648.28;5130716;27;20108;-56
2021/12/18 06:51:54;;;;;;;3.60;2.58;;;;;;;21.52;28.25;100646.56;5130924;27;20567;-63
2021/12/18 06:54:19;;;;;;;3.65;2.67;;;;;;;21.39;28.61;100646.56;5130826;27;20068;-63
2021/12/18 06:56:45;;;;;;;3.42;2.40;;;;;;;21.26;28.68;100644.91;5130827;27;20039;-62
2021/12/18 06:59:10;;;;;;;3.58;2.40;;;;;;;21.22;28.62;100652.34;5130767;27;20449;-63
2021/12/18 07:01:36;;;;;;;3.42;2.47;;;;;;;21.17;28.77;100661.72;5130845;27;20127;-63
2021/12/18 07:04:01;;;;;;;3.70;2.50;;;;;;;21.10;28.65;100658.72;5130410;27;20070;-64
2021/12/18 07:06:28;;;;;;;3.60;2.67;;;;;;;21.06;28.76;100659.75;5130523;27;20437;-63
2021/12/18 07:08:54;;;;;;;4.00;2.63;;;;;;;21.03;28.91;100666.00;5130668;27;20470;-64
2021/12/18 07:11:19;;;;;;;3.22;2.30;;;;;;;21.00;28.72;100663.91;5130614;27;20510;-64
2021/12/18 07:13:45;;;;;;;3.92;2.65;;;;;;;21.00;28.86;100661.13;5130517;27;20074;-63
2021/12/18 07:16:10;;;;;;;3.33;2.42;;;;;;;20.98;29.16;100652.31;5129034;27;20047;-63
2021/12/18 07:18:36;;;;;;;3.63;2.70;;;;;;;20.95;28.85;100651.03;5130097;28;20133;-63
2021/12/18 07:21:01;;;;;;;3.85;2.60;;;;;;;20.95;29.05;100653.00;5130205;27;20049;-62
2021/12/18 07:23:27;;;;;;;3.72;2.67;;;;;;;20.94;29.12;100651.41;5130467;27;20100;-63
2021/12/18 07:25:53;;;;;;;3.58;2.63;;;;;;;20.91;28.85;100650.09;5128727;28;20452;-63
2021/12/18 07:28:18;;;;;;;3.60;2.60;;;;;;;20.91;28.91;100649.28;5130092;27;20055;-63
2021/12/18 07:30:43;;;;;;;3.45;2.40;;;;;;;20.86;29.27;100642.81;5130171;27;20039;-63
2021/12/18 07:33:11;;;;;;;3.30;2.30;;;;;;;20.88;29.25;100656.38;5130075;28;20456;-63
2021/12/18 07:35:38;;;;;;;3.80;2.50;;;;;;;20.86;29.02;100659.50;5130256;27;20046;-63
2021/12/18 07:38:04;;;;;;;4.22;2.88;;;;;;;20.86;29.23;100658.69;5130233;27;20423;-65
2021/12/18 07:40:30;;;;;;;3.65;2.65;;;;;;;20.85;29.30;100663.41;5130288;27;20521;-64
2021/12/18 07:42:55;;;;;;;3.83;2.60;;;;;;;20.84;29.10;100656.22;5130160;27;20365;-64
2021/12/18 07:45:21;;;;;;;3.83;2.70;;;;;;;20.83;29.05;100660.16;5130177;27;20031;-64
2021/12/18 07:47:46;;;;;;;3.80;2.53;;;;;;;20.82;29.12;100658.56;5129908;27;20047;-64
2021/12/18 07:50:18;;;;;;;3.95;2.67;;;;;;;20.83;29.00;100664.91;5130253;27;20127;-64
2021/12/18 07:52:48;;;;;;;3.25;2.47;;;;;;;20.82;29.10;100663.31;5129718;27;20567;-64
2021/12/18 07:55:14;;;;;;;4.03;2.70;;;;;;;20.84;29.01;100659.00;5128077;27;20116;-63
2021/12/18 07:57:39;;;;;;;3.55;2.60;;;;;;;20.82;28.85;100668.88;5129996;28;20052;-63
2021/12/18 08:00:07;;;;;;;4.03;2.90;;;;;;;20.80;29.18;100665.63;5130166;27;20403;-63
2021/12/18 08:02:34;;;;;;;4.00;2.70;;;;;;;20.81;29.11;100668.06;5126499;28;20044;-64
2021/12/18 08:04:59;;;;;;;4.63;2.53;;;;;;;20.79;29.01;100658.44;5129983;28;20039;-64
2021/12/18 08:07:25;;;;;;;3.65;2.65;;;;;;;20.79;28.84;100664.81;5129711;28;20038;-64
2021/12/18 08:09:50;;;;;;;3.70;2.60;;;;;;;20.79;28.91;100670.38;5129657;28;20043;-63
2021/12/18 08:12:16;;;;;;;3.85;2.80;;;;;;;20.81;28.93;100667.25;5129893;27;20050;-64
2021/12/18 08:14:41;;;;;;;4.03;2.90;;;;;;;20.80;29.07;100666.44;5130002;27;20058;-64
2021/12/18 08:17:07;;;;;;;3.22;2.33;;;;;;;20.81;29.08;100664.47;5130210;28;20039;-64
2021/12/18 08:19:32;;;;;;;4.07;2.50;;;;;;;20.82;29.10;100671.66;5130033;27;20502;-63
2021/12/18 08:21:58;;;;;;;3.67;2.63;;;;;;;20.82;28.98;100674.44;5129747;28;20053;-64
2021/12/18 08:24:23;;;;;;;3.85;2.95;;;;;;;20.82;29.10;100669.69;5129720;28;20069;-64
2021/12/18 08:26:48;;;;;;;3.42;2.33;;;;;;;20.81;29.04;100670.84;5130612;27;20054;-63
2021/12/18 08:29:14;;;;;;;3.70;2.55;;;;;;;20.84;29.07;100677.66;5133229;28;20587;-57
2021/12/18 08:31:39;;;;;;;3.90;2.80;;;;;;;20.83;28.90;100682.41;5133372;27;20051;-57
2021/12/18 08:34:05;;;;;;;3.60;2.70;;;;;;;20.84;28.83;100683.22;5133154;28;20039;-57
2021/12/18 08:36:30;;;;;;;3.80;2.72;;;;;;;20.84;29.00;100686.81;5132977;28;20050;-63
2021/12/18 08:38:56;;;;;;;3.45;2.50;;;;;;;20.82;28.92;100672.44;5133033;27;20043;-64
2021/12/18 08:41:22;;;;;;;3.75;2.50;;;;;;;20.84;29.01;100689.59;5132863;28;20039;-64
2021/12/18 08:43:49;;;;;;;3.90;2.88;;;;;;;20.80;28.92;100683.13;5132880;27;20082;-64
2021/12/18 08:46:15;;;;;;;3.67;2.60;;;;;;;20.83;29.16;100687.16;5132696;27;20031;-64
2021/12/18 08:48:40;;;;;;;3.42;2.42;;;;;;;20.82;28.90;100691.91;5133183;27;20040;-64
2021/12/18 08:51:06;;;;;;;4.85;2.90;;;;;;;20.81;28.94;100695.88;5132870;27;20047;-63
2021/12/18 08:53:31;;;;;;;3.85;2.72;;;;;;;20.84;28.80;100697.13;5132872;27;20057;-64
2021/12/18 08:55:57;;;;;;;4.70;3.38;;;;;;;20.85;28.81;100701.53;5132616;28;20511;-64
2021/12/18 08:58:22;;;;;;;6.15;4.13;;;;;;;20.85;28.80;100701.53;5132765;27;20558;-64
2021/12/18 09:00:47;;;;;;;5.10;3.50;;;;;;;20.80;28.93;100699.81;5132666;27;20058;-57
2021/12/18 09:03:13;;;;;;;5.22;3.60;;;;;;;20.84;28.96;100708.25;5132567;28;20051;-57
2021/12/18 09:05:38;;;;;;;5.88;3.60;;;;;;;20.85;28.72;100716.25;5132618;27;20460;-57
2021/12/18 09:08:04;;;;;;;6.05;3.90;;;;;;;20.83;28.93;100715.78;5132274;27;20059;-57
2021/12/18 09:10:30;;;;;;;5.10;3.50;;;;;;;20.85;28.73;100713.47;5132505;27;20039;-56
2021/12/18 09:12:56;;;;;;;5.30;3.53;;;;;;;20.84;28.97;100709.06;5132485;27;20039;-56
2021/12/18 09:15:22;;;;;;;4.25;2.90;;;;;;;20.83;28.68;100718.56;5132449;27;20515;-56
2021/12/18 09:17:48;;;;;;;4.90;3.10;;;;;;;20.83;28.93;100714.97;5132399;27;20061;-57
2021/12/18 09:20:14;;;;;;;4.70;3.33;;;;;;;20.82;28.73;100714.16;5132346;27;20501;-57
2021/12/18 09:22:39;;;;;;;4.68;3.08;;;;;;;20.80;28.86;100718.47;5132394;28;20131;-56
2021/12/18 09:25:06;;;;;;;5.45;3.75;;;;;;;20.79;28.74;100711.28;5132202;27;20071;-56
2021/12/18 09:27:33;;;;;;;4.43;3.08;;;;;;;20.81;28.81;100720.88;5132124;27;20453;-56
2021/12/18 09:29:58;;;;;;;4.15;3.15;;;;;;;20.81;28.94;100720.06;5132345;28;20592;-56
2021/12/18 09:32:24;;;;;;;4.85;3.30;;;;;;;20.81;28.91;100720.88;5132000;27;20047;-56
2021/12/18 09:34:50;;;;;;;4.55;3.33;;;;;;;20.81;28.90;100718.09;5132069;27;20062;-56
2021/12/18 09:37:15;;;;;;;3.85;2.80;;;;;;;20.81;29.04;100720.06;5131699;27;20054;-56
2021/12/18 09:39:41;;;;;;;4.43;3.15;;;;;;;20.80;28.85;100710.13;5130994;27;20079;-56
2021/12/18 09:42:06;;;;;;;4.22;2.90;;;;;;;20.81;28.72;100720.06;5132204;27;20049;-56
2021/12/18 09:44:34;;;;;;;5.05;3.10;;;;;;;20.79;29.04;100714.88;5132251;28;20043;-57
2021/12/18 09:47:01;;;;;;;4.03;2.90;;;;;;;20.80;28.87;100715.69;5131967;27;20073;-64
2021/12/18 09:49:28;;;;;;;4.57;2.92;;;;;;;20.81;28.84;100722.84;5131858;27;20050;-64
2021/12/18 09:51:53;;;;;;;4.13;2.90;;;;;;;20.80;28.95;100722.03;5132005;27;20142;-63
2021/12/18 09:54:19;;;;;;;4.25;3.10;;;;;;;20.78;28.95;100717.97;5131918;27;20126;-64
2021/12/18 09:56:45;;;;;;;4.00;2.95;;;;;;;20.78;28.80;100718.78;5131798;27;20039;-64
2021/12/18 09:59:11;;;;;;;4.25;3.13;;;;;;;20.78;28.94;100717.97;5131843;27;20047;-64
2021/12/18 10:01:37;;;;;;;3.90;2.60;;;;;;;20.78;28.95;100716.00;5131845;27;20047;-64
2021/12/18 10:04:04;;;;;;;3.97;2.83;;;;;;;20.78;28.82;100710.44;5131740;27;20050;-64
2021/12/18 10:06:40;;;;;;;4.30;3.10;;;;;;;20.77;28.93;100711.59;5131551;27;20043;-64
2021/12/18 10:09:18;;;;;;;3.67;2.58;;;;;;;20.76;28.75;100709.16;5131380;27;20525;-64
2021/12/18 10:11:47;;;;;;;3.88;2.70;;;;;;;20.75;28.81;100702.78;5131646;28;20051;-64
2021/12/18 10:14:13;;;;;;;3.72;2.70;;;;;;;20.76;28.79;100698.03;5131650;28;20542;-56
2021/12/18 10:16:49;;;;;;;4.40;2.90;;;;;;;20.75;28.69;100690.84;5131711;28;20134;-56
2021/12/18 10:19:41;;;;;;;3.63;2.58;;;;;;;20.74;28.87;100687.28;5131449;28;20461;-56
2021/12/18 10:22:09;;;;;;;4.07;2.83;;;;;;;20.75;28.76;100688.06;5131377;27;20043;-57
2021/12/18 10:24:44;;;;;;;4.20;2.90;;;;;;;20.75;28.77;100688.88;5131533;27;20470;-57
2021/12/18 10:27:17;;;;;;;3.70;2.50;;;;;;;20.75;29.11;100686.09;5131277;27;20035;-56
2021/12/18 10:29:42;;;;;;;4.15;3.08;;;;;;;20.75;28.81;100686.09;5131288;27;20063;-56
2021/12/18 10:32:13;;;;;;;4.53;2.65;;;;;;;20.74;28.85;100681.72;5131106;28;20035;-56
2021/12/18 10:34:40;;;;;;;4.03;2.95;;;;;;;20.76;28.85;100687.72;5131211;27;20050;-56
2021/12/18 10:37:17;;;;;;;3.80;2.60;;;;;;;20.91;28.96;100677.09;5131400;27;20043;-64
2021/12/18 10:39:56;;;;;;;3.58;2.70;;;;;;;21.78;27.89;100679.56;5131037;27;20039;-56
2021/12/18 10:42:42;;;;;;;3.80;2.70;;;;;;;21.92;27.52;100680.81;5131135;27;20130;-57
2021/12/18 10:45:25;;;;;;;3.97;2.78;;;;;;;21.79;27.58;100683.97;5127610;28;20051;-57
2021/12/18 10:47:59;;;;;;;3.53;2.70;;;;;;;21.61;27.81;100683.44;5130947;27;20130;-57
2021/12/18 10:50:32;;;;;;;4.20;3.05;;;;;;;21.43;28.06;100682.84;5130552;27;20047;-56
2021/12/18 10:53:15;;;;;;;4.13;2.83;;;;;;;21.28;28.39;100687.13;5130739;27;20057;-56
2021/12/18 10:55:46;;;;;;;;;;;;;;;21.20;28.29;100690.81;5131578;27;20468;-56
2021/12/18 10:58:19;;;;;;;3.95;2.78;;;;;;;21.11;28.50;100687.34;5130851;27;19915;-56
2021/12/18 11:00:55;;;;;;;3.80;2.85;;;;;;;21.05;28.74;100677.59;5130777;27;20051;-56
2021/12/18 11:03:50;;;;;;;3.60;2.50;;;;;;;21.00;28.55;100686.97;5130745;27;20054;-56
2021/12/18 11:06:21;;;;;;;4.18;2.92;;;;;;;20.96;28.58;100685.22;5113210;27;20063;-56
2021/12/18 11:08:59;;;;;;;3.80;2.88;;;;;;;20.93;28.69;100683.13;5130575;27;20031;-63
2021/12/18 11:13:58;;;;;;;4.20;2.60;;;;;;;20.90;28.61;100681.84;5130741;27;20043;-56
2021/12/18 11:16:25;;;;;;;3.83;2.60;;;;;;;20.88;28.66;100681.41;5130677;27;20449;-56
2021/12/18 11:18:53;;;;;;;5.60;3.33;;;;;;;20.86;28.73;100689.28;5130639;27;20054;-56
2021/12/18 11:21:19;;;;;;;3.95;2.78;;;;;;;20.84;28.71;100684.03;5129337;28;20534;-56
2021/12/18 11:23:54;;;;;;;4.22;2.88;;;;;;;20.84;28.73;100683.22;5130595;27;20072;-56
2021/12/18 11:26:22;;;;;;;4.43;3.17;;;;;;;20.83;28.72;100687.97;5130310;27;20047;-56
2021/12/18 11:28:50;;;;;;;4.85;3.13;;;;;;;20.82;28.73;100683.56;5130292;27;20123;-57
2021/12/18 11:31:15;;;;;;;4.63;3.35;;;;;;;20.81;28.73;100673.63;5130418;27;20043;-56
2021/12/18 11:33:41;;;;;;;4.72;3.25;;;;;;;20.83;28.97;100676.84;5130364;27;20043;-56
2021/12/18 11:36:08;;;;;;;4.57;3.22;;;;;;;20.82;28.79;100669.69;5130391;27;20126;-56
2021/12/18 11:38:36;;;;;;;4.50;3.00;;;;;;;20.81;28.73;100670.84;5130176;27;20047;-56
2021/12/18 11:41:02;;;;;;;5.00;3.03;;;;;;;20.80;29.01;100666.44;5130343;27;20118;-56
2021/12/18 11:43:41;;;;;;;4.47;3.17;;;;;;;20.82;28.84;100668.88;5130058;27;20039;-56
2021/12/18 11:46:37;;;;;;;3.97;2.83;;;;;;;20.80;28.96;100665.63;5130170;27;20384;-62
2021/12/18 11:49:10;;;;;;;4.53;3.00;;;;;;;20.78;29.04;100657.59;5129875;27;20522;-63
2021/12/18 11:51:37;;;;;;;4.05;2.92;;;;;;;20.81;28.84;100656.94;5129907;27;20047;-63
2021/12/18 11:54:06;;;;;;;3.80;2.70;;;;;;;20.81;28.98;100654.16;5129992;27;20088;-63
2021/12/18 11:56:49;;;;;;;5.05;3.35;;;;;;;20.80;29.08;100654.50;5128555;28;20047;-63
2021/12/18 11:59:42;;;;;;;3.97;2.97;;;;;;;20.81;29.09;100656.94;5130108;27;20062;-64
2021/12/18 12:02:09;;;;;;;5.03;3.10;;;;;;;20.81;28.88;100650.56;5129623;27;20506;-57
2021/12/18 12:04:58;;;;;;;4.30;2.95;;;;;;;20.80;29.16;100655.31;5133603;27;20051;-56
2021/12/18 12:07:25;;;;;;;4.22;3.17;;;;;;;20.81;28.86;100662.50;5133340;27;20426;-56